Time;durP1;ratioP1;P1;durP2;ratioP2;P2;SDS_P1;SDS_P2;PMS_P1;PMS_P2;Temp;Humidity;BMP_temperature;BMP_pressure;BME280_temperature;BME280_humidity;BME280_pressure;Samples;Min_cycle;Max_cycle;Signal;HPM_P1;HPM_P2
2023/10/25 00:01:52;;;;;;;18.83;8.90;;;12.70;99.90;;;;;;4382952;28;658895;-67
2023/10/25 00:04:40;;;;;;;22.63;9.00;;;12.60;99.90;;;;;;4352092;28;659431;-67
2023/10/25 00:07:27;;;;;;;22.70;9.23;;;12.60;99.90;;;;;;4373047;28;658921;-68
2023/10/25 00:10:15;;;;;;;18.33;8.70;;;12.60;99.90;;;;;;4379712;28;659215;-67
2023/10/25 00:13:03;;;;;;;17.43;8.67;;;12.60;99.90;;;;;;4371726;28;658591;-67
2023/10/25 00:15:50;;;;;;;20.30;8.23;;;12.60;99.90;;;;;;4372574;28;659177;-67
2023/10/25 00:18:39;;;;;;;20.27;8.70;;;12.60;99.90;;;;;;4349178;28;658594;-67
2023/10/25 00:21:26;;;;;;;17.13;9.00;;;12.60;99.90;;;;;;4371208;28;658823;-68
2023/10/25 00:24:14;;;;;;;17.30;8.68;;;12.60;99.90;;;;;;4351332;28;658569;-69
2023/10/25 00:27:01;;;;;;;20.73;8.77;;;12.60;99.90;;;;;;4368529;28;658085;-69
2023/10/25 00:29:48;;;;;;;17.23;9.10;;;12.50;99.90;;;;;;4351789;28;658395;-69
2023/10/25 00:32:35;;;;;;;20.87;8.90;;;12.60;99.90;;;;;;4372040;28;659343;-69
2023/10/25 00:35:24;;;;;;;20.93;8.80;;;12.60;99.90;;;;;;4347637;28;658813;-68
2023/10/25 00:38:11;;;;;;;17.33;8.77;;;12.60;99.90;;;;;;4369722;28;658299;-67
2023/10/25 00:40:58;;;;;;;21.70;8.80;;;12.50;99.90;;;;;;4351443;28;658694;-68
2023/10/25 00:43:45;;;;;;;22.10;9.43;;;12.60;99.90;;;;;;4367205;28;659159;-67
2023/10/25 00:46:33;;;;;;;23.33;9.30;;;12.50;99.90;;;;;;4351994;28;658865;-68
2023/10/25 00:49:20;;;;;;;25.00;8.43;;;12.60;99.90;;;;;;4369976;28;660138;-68
2023/10/25 00:52:09;;;;;;;22.23;8.50;;;12.50;99.90;;;;;;4347027;28;659038;-68
2023/10/25 00:54:56;;;;;;;20.13;8.27;;;12.50;99.90;;;;;;4369196;28;659173;-68
2023/10/25 00:57:43;;;;;;;20.60;8.47;;;12.60;99.90;;;;;;4346340;28;659050;-68
2023/10/25 01:00:31;;;;;;;19.00;8.10;;;12.50;99.90;;;;;;4362648;28;659523;-68
2023/10/25 01:03:18;;;;;;;24.73;8.37;;;12.50;99.90;;;;;;4350871;28;659172;-68
2023/10/25 01:06:05;;;;;;;24.03;8.50;;;12.50;99.90;;;;;;4368926;28;659341;-67
2023/10/25 01:08:54;;;;;;;23.50;7.43;;;12.60;99.90;;;;;;4345254;28;658703;-67
2023/10/25 01:11:41;;;;;;;21.67;6.77;;;12.60;99.90;;;;;;4367302;28;658797;-68
2023/10/25 01:14:28;;;;;;;19.37;7.47;;;12.60;99.90;;;;;;4343609;28;659313;-68
2023/10/25 01:17:16;;;;;;;19.27;7.47;;;12.60;99.90;;;;;;4371792;28;659033;-67
2023/10/25 01:20:03;;;;;;;17.43;7.30;;;12.60;99.90;;;;;;4347149;28;659443;-67
2023/10/25 01:22:52;;;;;;;18.07;6.57;;;12.60;99.90;;;;;;4367024;28;658772;-67
2023/10/25 01:25:39;;;;;;;23.23;7.40;;;12.60;99.90;;;;;;4346340;28;659428;-68
2023/10/25 01:28:26;;;;;;;24.20;9.27;;;12.60;99.90;;;;;;4370287;28;659091;-67
2023/10/25 01:31:13;;;;;;;22.40;7.43;;;12.70;99.90;;;;;;4349993;28;658702;-68
2023/10/25 01:34:00;;;;;;;25.40;8.00;;;12.60;99.90;;;;;;4359728;28;659381;-68
2023/10/25 01:36:48;;;;;;;23.23;7.50;;;12.50;99.90;;;;;;4343478;28;658818;-67
2023/10/25 01:39:36;;;;;;;20.53;7.50;;;12.60;99.90;;;;;;4375875;28;661521;-67
2023/10/25 01:42:23;;;;;;;25.37;8.60;;;12.60;99.90;;;;;;4357190;28;658286;-68
2023/10/25 01:45:11;;;;;;;23.03;7.50;;;12.60;99.90;;;;;;4369877;28;658692;-67
2023/10/25 01:47:58;;;;;;;23.50;7.60;;;12.70;99.90;;;;;;4351828;28;659208;-67
2023/10/25 01:50:45;;;;;;;26.03;7.57;;;12.70;99.90;;;;;;4372104;28;659251;-67
2023/10/25 01:53:33;;;;;;;19.83;7.17;;;12.70;99.90;;;;;;4357473;28;659675;-68
2023/10/25 01:56:22;;;;;;;25.30;7.63;;;12.70;99.90;;;;;;4373136;28;659715;-67
2023/10/25 01:59:09;;;;;;;24.17;8.70;;;12.70;99.90;;;;;;4347293;28;659471;-68
2023/10/25 02:01:56;;;;;;;16.93;7.13;;;12.70;99.90;;;;;;4376284;28;658267;-68
2023/10/25 02:04:44;;;;;;;22.23;7.47;;;12.70;99.90;;;;;;4348749;28;659190;-68
2023/10/25 02:07:31;;;;;;;26.67;9.33;;;12.70;99.90;;;;;;4371097;28;659374;-68
2023/10/25 02:10:18;;;;;;;28.50;8.37;;;12.70;99.90;;;;;;4351291;28;658234;-68
2023/10/25 02:13:07;;;;;;;33.00;8.70;;;12.70;99.90;;;;;;4378132;28;659781;-68
2023/10/25 02:15:54;;;;;;;26.73;8.23;;;12.80;99.90;;;;;;4352003;28;659459;-68
2023/10/25 02:18:41;;;;;;;20.57;8.00;;;12.80;99.90;;;;;;4375380;28;658560;-68
2023/10/25 02:21:28;;;;;;;24.10;8.95;;;12.70;99.90;;;;;;4356751;28;658563;-68
2023/10/25 02:24:16;;;;;;;29.67;8.80;;;12.80;99.90;;;;;;4375103;28;659413;-68
2023/10/25 02:27:03;;;;;;;25.90;8.27;;;12.80;99.90;;;;;;4356210;28;658709;-68
2023/10/25 02:29:52;;;;;;;31.33;8.43;;;12.80;99.90;;;;;;4372590;28;658960;-68
2023/10/25 02:32:39;;;;;;;23.63;8.30;;;12.80;99.90;;;;;;4356996;28;658541;-68
2023/10/25 02:35:26;;;;;;;25.90;8.47;;;12.80;99.90;;;;;;4374378;28;658915;-68
2023/10/25 02:38:13;;;;;;;23.07;8.67;;;12.80;99.90;;;;;;4354155;28;658988;-68
2023/10/25 02:41:00;;;;;;;26.15;8.15;;;12.80;99.90;;;;;;4368583;28;659396;-68
2023/10/25 02:43:50;;;;;;;20.27;7.83;;;12.80;99.90;;;;;;4352336;28;658500;-68
2023/10/25 02:46:39;;;;;;;23.13;8.03;;;12.80;99.90;;;;;;4353536;28;661536;-68
2023/10/25 02:49:26;;;;;;;23.87;8.07;;;12.80;99.90;;;;;;4372561;28;658570;-68
2023/10/25 02:52:13;;;;;;;26.53;8.23;;;12.70;99.90;;;;;;4350683;28;659379;-67
2023/10/25 02:55:01;;;;;;;16.57;7.30;;;12.80;99.90;;;;;;4371105;28;660125;-68
2023/10/25 02:57:48;;;;;;;19.23;7.77;;;12.70;99.90;;;;;;4352068;28;658482;-68
2023/10/25 03:00:36;;;;;;;20.43;8.00;;;12.70;99.90;;;;;;4374689;28;658786;-68
2023/10/25 03:03:24;;;;;;;20.43;7.80;;;12.70;99.90;;;;;;4349340;28;658924;-68
2023/10/25 03:06:11;;;;;;;19.23;7.77;;;12.70;99.90;;;;;;4367122;28;658986;-68
2023/10/25 03:08:59;;;;;;;21.87;6.70;;;12.70;99.90;;;;;;4345054;28;659609;-68
2023/10/25 03:11:46;;;;;;;19.20;7.83;;;12.80;99.90;;;;;;4368259;28;659238;-68
2023/10/25 03:14:33;;;;;;;12.53;6.00;;;12.80;99.90;;;;;;4346991;28;659009;-68
2023/10/25 03:17:20;;;;;;;16.37;6.23;;;12.80;99.90;;;;;;4374951;28;659003;-67
2023/10/25 03:20:10;;;;;;;10.60;5.30;;;12.70;99.90;;;;;;4356034;28;659225;-67
2023/10/25 03:22:57;;;;;;;15.90;5.10;;;12.90;99.90;;;;;;4362695;28;659078;-67
2023/10/25 03:25:45;;;;;;;15.00;5.90;;;12.90;99.90;;;;;;4374575;28;658774;-67
2023/10/25 03:28:32;;;;;;;12.63;5.73;;;12.90;99.90;;;;;;4371601;28;659213;-67
2023/10/25 03:31:19;;;;;;;11.93;5.53;;;12.80;99.90;;;;;;4347655;28;659449;-68
2023/10/25 03:34:06;;;;;;;18.43;7.33;;;13.00;99.90;;;;;;4377758;28;658507;-67
2023/10/25 03:36:55;;;;;;;18.30;6.77;;;12.90;99.90;;;;;;4347912;28;659351;-67
2023/10/25 03:39:42;;;;;;;15.63;7.77;;;12.90;99.90;;;;;;4372321;28;658234;-68
2023/10/25 03:42:30;;;;;;;17.97;8.50;;;12.90;99.90;;;;;;4364875;28;659505;-67
2023/10/25 03:45:17;;;;;;;19.33;9.10;;;12.80;99.90;;;;;;4372436;28;659053;-67
2023/10/25 03:48:04;;;;;;;12.97;7.33;;;12.80;99.90;;;;;;4347385;28;659381;-67
2023/10/25 03:50:52;;;;;;;21.20;9.67;;;12.70;99.90;;;;;;4368922;28;658743;-68
2023/10/25 03:53:40;;;;;;;20.50;10.00;;;12.80;99.90;;;;;;4352965;28;659070;-67
2023/10/25 03:56:27;;;;;;;26.90;11.77;;;12.70;99.90;;;;;;4350342;28;660148;-68
2023/10/25 03:59:15;;;;;;;22.00;10.27;;;12.70;99.90;;;;;;4367391;28;660342;-68
2023/10/25 04:02:02;;;;;;;24.50;11.90;;;12.70;99.90;;;;;;4357956;28;659599;-67
2023/10/25 04:04:50;;;;;;;30.23;13.83;;;12.60;99.90;;;;;;4368246;28;660765;-67
2023/10/25 04:07:38;;;;;;;26.67;15.00;;;12.70;99.90;;;;;;4376273;28;659644;-67
2023/10/25 04:10:29;;;;;;;23.60;13.33;;;12.60;99.90;;;;;;4365886;28;661024;-67
2023/10/25 04:13:16;;;;;;;20.67;11.63;;;12.70;99.90;;;;;;4347245;28;660133;-68
2023/10/25 04:16:05;;;;;;;33.00;16.97;;;12.70;99.90;;;;;;4351338;28;660019;-67
2023/10/25 04:18:52;;;;;;;27.40;12.17;;;12.70;99.90;;;;;;4358285;28;659623;-67
2023/10/25 04:21:40;;;;;;;29.77;14.90;;;12.70;99.90;;;;;;4376682;28;659718;-67
2023/10/25 04:24:27;;;;;;;30.97;16.30;;;12.60;99.90;;;;;;4369412;28;660080;-67
2023/10/25 04:27:16;;;;;;;40.53;18.40;;;12.60;99.90;;;;;;4374381;28;659710;-67
2023/10/25 04:30:06;;;;;;;39.83;18.60;;;12.60;99.90;;;;;;4347686;28;659737;-67
2023/10/25 04:32:53;;;;;;;31.53;18.13;;;12.60;99.90;;;;;;4351209;28;659762;-67
2023/10/25 04:35:41;;;;;;;33.00;19.23;;;12.60;99.90;;;;;;4367802;28;660946;-67
2023/10/25 04:38:28;;;;;;;36.87;20.17;;;12.40;99.90;;;;;;4343928;28;659703;-68
2023/10/25 04:41:15;;;;;;;41.07;21.00;;;12.40;99.90;;;;;;4367127;28;660233;-68
2023/10/25 04:44:04;;;;;;;35.25;19.48;;;12.40;99.90;;;;;;4343167;28;659727;-67
2023/10/25 04:46:51;;;;;;;34.70;18.70;;;12.50;99.90;;;;;;4364476;28;659529;-67
2023/10/25 04:49:39;;;;;;;31.70;17.20;;;12.40;99.90;;;;;;4352473;28;659978;-67
2023/10/25 04:52:26;;;;;;;37.33;18.47;;;12.50;99.90;;;;;;4365202;28;660605;-68
2023/10/25 04:55:13;;;;;;;37.27;18.97;;;12.50;99.90;;;;;;4347466;28;660088;-67
2023/10/25 04:58:00;;;;;;;34.00;18.10;;;12.40;99.90;;;;;;4370335;28;660385;-68
2023/10/25 05:00:49;;;;;;;34.67;18.80;;;12.40;99.90;;;;;;4344467;28;659693;-67
2023/10/25 05:03:36;;;;;;;33.13;19.07;;;12.40;99.90;;;;;;4365491;28;659718;-67
2023/10/25 05:06:23;;;;;;;37.80;18.50;;;12.30;99.90;;;;;;4346465;28;659340;-67
2023/10/25 05:09:11;;;;;;;36.33;19.93;;;12.20;99.90;;;;;;4366792;28;661155;-67
2023/10/25 05:12:01;;;;;;;39.63;20.87;;;12.20;99.90;;;;;;4345060;28;660038;-68
2023/10/25 05:14:49;;;;;;;35.20;19.37;;;12.10;99.90;;;;;;4348018;28;659563;-67
2023/10/25 05:17:38;;;;;;;36.27;19.57;;;12.10;99.90;;;;;;4364755;28;659890;-67
2023/10/25 05:20:25;;;;;;;37.27;21.07;;;12.20;99.90;;;;;;4342680;28;660608;-68
2023/10/25 05:23:13;;;;;;;22.03;12.60;;;12.20;99.90;;;;;;4344097;28;659833;-67
2023/10/25 05:26:01;;;;;;;26.80;13.07;;;12.10;99.90;;;;;;4367466;28;660079;-68
2023/10/25 05:28:48;;;;;;;39.27;22.30;;;12.10;99.90;;;;;;4352857;28;660286;-67
2023/10/25 05:31:36;;;;;;;42.70;23.57;;;12.10;99.90;;;;;;4374219;28;659492;-67
2023/10/25 05:34:25;;;;;;;40.80;22.87;;;12.00;99.90;;;;;;4342279;28;659736;-68
2023/10/25 05:37:13;;;;;;;38.13;20.63;;;12.10;99.90;;;;;;4341891;28;660513;-67
2023/10/25 05:40:01;;;;;;;46.23;22.90;;;12.10;99.90;;;;;;4367012;28;659631;-68
2023/10/25 05:42:49;;;;;;;44.27;23.63;;;12.00;99.90;;;;;;4344363;28;659652;-68
2023/10/25 05:45:36;;;;;;;40.30;18.23;;;12.00;99.90;;;;;;4365266;28;660695;-67
2023/10/25 05:48:24;;;;;;;26.87;14.57;;;12.00;99.90;;;;;;4344682;28;660342;-68
2023/10/25 05:51:13;;;;;;;48.07;25.23;;;12.00;99.90;;;;;;4366867;28;660125;-67
2023/10/25 05:54:00;;;;;;;57.00;24.83;;;12.00;99.90;;;;;;4340739;28;661042;-68
2023/10/25 05:56:48;;;;;;;56.83;25.50;;;12.00;99.90;;;;;;4345742;28;659913;-68
2023/10/25 05:59:36;;;;;;;48.07;23.97;;;12.00;99.90;;;;;;4369547;28;659563;-68
2023/10/25 06:02:24;;;;;;;53.73;25.27;;;12.00;99.90;;;;;;4347612;28;659465;-68
2023/10/25 06:05:12;;;;;;;52.70;25.77;;;11.90;99.90;;;;;;4364138;28;660081;-70
2023/10/25 06:08:01;;;;;;;46.47;22.97;;;11.90;99.90;;;;;;4344528;28;660217;-67
2023/10/25 06:10:50;;;;;;;48.03;23.40;;;11.90;99.90;;;;;;4346228;28;660391;-67
2023/10/25 06:13:38;;;;;;;43.40;20.65;;;12.00;99.90;;;;;;4349113;28;660615;-68
2023/10/25 06:16:25;;;;;;;49.17;22.60;;;11.90;99.90;;;;;;4368453;28;660075;-68
2023/10/25 06:19:12;;;;;;;40.27;17.10;;;11.90;99.90;;;;;;4348821;28;660293;-68
2023/10/25 06:22:00;;;;;;;47.13;19.67;;;11.90;99.90;;;;;;4365988;28;661193;-67
2023/10/25 06:24:49;;;;;;;39.93;16.17;;;11.80;99.90;;;;;;4365361;28;659745;-68
2023/10/25 06:27:36;;;;;;;39.73;15.60;;;11.80;99.90;;;;;;4371189;28;661838;-68
2023/10/25 06:30:23;;;;;;;45.63;19.67;;;11.80;99.90;;;;;;4339489;28;659457;-68
2023/10/25 06:33:10;;;;;;;30.50;14.20;;;11.80;99.90;;;;;;4365753;28;660952;-68
2023/10/25 06:36:00;;;;;;;31.30;14.70;;;11.80;99.90;;;;;;4343413;28;659877;-68
2023/10/25 06:38:48;;;;;;;34.33;16.87;;;11.80;99.90;;;;;;4347495;28;659799;-68
2023/10/25 06:41:38;;;;;;;29.40;16.10;;;11.70;99.90;;;;;;4368117;28;660470;-68
2023/10/25 06:44:26;;;;;;;25.43;12.97;;;11.70;99.90;;;;;;4354026;28;660585;-68
2023/10/25 06:47:14;;;;;;;34.47;17.80;;;11.80;99.90;;;;;;4347346;28;659544;-68
2023/10/25 06:50:01;;;;;;;29.77;17.13;;;11.70;99.90;;;;;;4371227;28;659669;-68
2023/10/25 06:52:49;;;;;;;27.17;13.90;;;11.70;99.90;;;;;;4355966;28;659527;-68
2023/10/25 06:55:37;;;;;;;28.60;14.83;;;11.70;99.90;;;;;;4373356;28;660009;-68
2023/10/25 06:58:27;;;;;;;25.13;14.13;;;11.70;99.90;;;;;;4344365;28;660709;-68
2023/10/25 07:01:14;;;;;;;24.53;13.80;;;11.70;99.90;;;;;;4354227;28;659731;-68
2023/10/25 07:04:02;;;;;;;20.33;12.13;;;11.70;99.90;;;;;;4381469;28;660810;-68
2023/10/25 07:06:49;;;;;;;20.87;12.00;;;11.70;99.90;;;;;;4354513;28;660299;-68
2023/10/25 07:09:37;;;;;;;20.50;12.20;;;11.60;99.90;;;;;;4374556;28;660453;-68
2023/10/25 07:12:25;;;;;;;14.85;8.70;;;11.60;99.90;;;;;;4359419;28;660337;-68
2023/10/25 07:15:13;;;;;;;27.67;14.17;;;11.70;99.90;;;;;;4379114;28;658422;-68
2023/10/25 07:18:00;;;;;;;26.27;14.50;;;11.60;99.90;;;;;;4358611;28;660204;-67
2023/10/25 07:20:48;;;;;;;14.53;7.30;;;11.60;99.90;;;;;;4355809;28;659629;-67
2023/10/25 07:23:35;;;;;;;18.97;9.43;;;11.60;99.90;;;;;;4376541;28;659319;-68
2023/10/25 07:26:22;;;;;;;31.07;17.00;;;11.60;99.90;;;;;;4371957;28;659237;-67
2023/10/25 07:29:10;;;;;;;21.33;9.07;;;11.50;99.90;;;;;;4374960;28;660552;-68
2023/10/25 07:31:59;;;;;;;38.03;18.73;;;11.50;99.90;;;;;;4374388;28;659273;-68
2023/10/25 07:34:46;;;;;;;30.80;12.10;;;11.50;99.90;;;;;;4380575;28;659437;-68
2023/10/25 07:37:33;;;;;;;38.43;18.93;;;11.50;99.90;;;;;;4352565;28;659593;-67
2023/10/25 07:40:20;;;;;;;41.20;17.87;;;11.50;99.90;;;;;;4372204;28;659201;-67
2023/10/25 07:43:08;;;;;;;30.83;15.33;;;11.50;99.90;;;;;;4348862;28;660396;-68
2023/10/25 07:45:55;;;;;;;43.23;20.53;;;11.50;99.90;;;;;;4367381;28;659882;-67
2023/10/25 07:48:44;;;;;;;48.10;20.13;;;11.50;99.90;;;;;;4361568;28;659733;-67
2023/10/25 07:51:31;;;;;;;25.23;9.80;;;11.50;99.90;;;;;;4365825;28;659165;-67
2023/10/25 07:54:18;;;;;;;43.00;20.73;;;11.50;99.90;;;;;;4349184;28;658711;-68
2023/10/25 07:57:06;;;;;;;46.30;20.57;;;11.50;99.90;;;;;;4366048;28;660369;-67
2023/10/25 07:59:53;;;;;;;45.60;20.43;;;11.50;99.90;;;;;;4349072;28;659794;-67
2023/10/25 08:02:40;;;;;;;45.43;21.30;;;11.40;99.90;;;;;;4374494;28;660871;-67
2023/10/25 08:05:29;;;;;;;45.40;20.77;;;11.30;99.90;;;;;;4349598;28;660767;-68
2023/10/25 08:08:17;;;;;;;43.90;18.87;;;11.30;99.90;;;;;;4367853;28;660504;-67
2023/10/25 08:11:05;;;;;;;35.27;17.17;;;11.30;99.90;;;;;;4342464;28;660295;-67
2023/10/25 08:13:52;;;;;;;41.17;19.33;;;11.30;99.90;;;;;;4357944;28;659811;-67
2023/10/25 08:16:42;;;;;;;42.80;20.70;;;11.20;99.90;;;;;;4370651;28;658903;-68
2023/10/25 08:19:29;;;;;;;37.30;18.13;;;11.20;99.90;;;;;;4344378;28;661384;-67
2023/10/25 08:22:18;;;;;;;39.53;19.33;;;11.20;99.90;;;;;;4364966;28;659754;-67
2023/10/25 08:25:08;;;;;;;27.63;13.53;;;11.20;99.90;;;;;;4347857;28;660809;-67
2023/10/25 08:27:56;;;;;;;40.03;19.40;;;11.20;99.90;;;;;;4341796;28;660339;-67
2023/10/25 08:30:43;;;;;;;40.60;21.70;;;11.20;99.90;;;;;;4343179;28;659652;-68
2023/10/25 08:33:30;;;;;;;39.63;21.17;;;11.20;99.90;;;;;;4377724;28;660673;-67
2023/10/25 08:36:17;;;;;;;20.27;10.10;;;11.20;99.90;;;;;;4355090;28;659625;-67
2023/10/25 08:39:06;;;;;;;37.70;20.73;;;11.20;99.90;;;;;;4371673;28;660464;-67
2023/10/25 08:41:53;;;;;;;45.63;21.83;;;11.10;99.90;;;;;;4352236;28;660262;-67
2023/10/25 08:44:41;;;;;;;39.77;20.33;;;11.10;99.90;;;;;;4371394;28;660571;-67
2023/10/25 08:47:29;;;;;;;22.15;9.82;;;11.10;99.90;;;;;;4352349;28;659867;-67
2023/10/25 08:50:19;;;;;;;40.83;20.87;;;11.10;99.90;;;;;;4377687;28;659453;-68
2023/10/25 08:53:07;;;;;;;34.87;19.17;;;11.10;99.90;;;;;;4348344;28;659794;-67
2023/10/25 08:55:56;;;;;;;40.30;21.73;;;11.10;99.90;;;;;;4357647;28;659502;-67
2023/10/25 08:58:43;;;;;;;42.40;22.37;;;11.10;99.90;;;;;;4353024;28;660573;-67
2023/10/25 09:01:31;;;;;;;44.57;23.80;;;11.10;99.90;;;;;;4374861;28;661344;-67
2023/10/25 09:04:18;;;;;;;45.40;23.20;;;11.00;99.90;;;;;;4352681;28;660646;-68
2023/10/25 09:07:27;;;;;;;46.05;23.15;;;11.10;99.90;;;;;;4369886;28;660573;-68
2023/10/25 09:10:15;;;;;;;46.90;22.67;;;11.10;99.90;;;;;;4354019;28;660125;-67
2023/10/25 09:13:07;;;;;;;51.03;24.60;;;11.10;99.90;;;;;;4351502;28;659666;-68
2023/10/25 09:16:02;;;;;;;46.53;24.53;;;11.00;99.90;;;;;;4353007;28;659942;-68
2023/10/25 09:18:50;;;;;;;34.20;15.90;;;11.10;99.90;;;;;;4327728;28;660309;-67
2023/10/25 09:21:37;;;;;;;43.17;22.53;;;11.20;99.90;;;;;;4373535;28;660596;-67
2023/10/25 09:24:25;;;;;;;39.50;20.40;;;11.10;99.90;;;;;;4376149;28;660539;-67
2023/10/25 09:27:12;;;;;;;43.50;19.83;;;11.20;99.90;;;;;;4369324;28;660227;-67
2023/10/25 09:30:15;;;;;;;44.37;20.93;;;11.30;99.90;;;;;;4348920;28;660082;-67
2023/10/25 09:33:05;;;;;;;40.83;21.55;;;11.20;99.90;;;;;;4343290;28;659852;-67
2023/10/25 09:35:52;;;;;;;40.00;21.00;;;11.30;99.90;;;;;;4376549;28;659600;-67
2023/10/25 09:38:40;;;;;;;41.80;20.83;;;11.20;99.90;;;;;;4372604;28;660727;-67
2023/10/25 09:41:27;;;;;;;38.93;20.90;;;11.20;99.90;;;;;;4365441;28;659803;-67
2023/10/25 09:44:18;;;;;;;39.17;20.07;;;11.20;99.90;;;;;;4349680;28;660852;-67
2023/10/25 09:47:09;;;;;;;36.37;17.40;;;11.30;99.90;;;;;;4343743;28;660211;-66
2023/10/25 09:50:04;;;;;;;33.30;19.77;;;11.40;99.90;;;;;;4349703;28;659581;-69
2023/10/25 09:52:51;;;;;;;40.93;21.77;;;11.40;99.90;;;;;;4345604;28;660309;-69
2023/10/25 09:55:38;;;;;;;41.00;20.90;;;11.40;99.90;;;;;;4345867;28;660772;-69
2023/10/25 09:58:26;;;;;;;36.53;19.77;;;11.40;99.90;;;;;;4364867;28;660613;-69
2023/10/25 10:01:13;;;;;;;36.93;20.13;;;11.50;99.90;;;;;;4344919;28;659734;-69
2023/10/25 10:04:06;;;;;;;43.27;20.57;;;11.40;99.90;;;;;;4370204;28;660140;-69
2023/10/25 10:06:58;;;;;;;38.33;19.43;;;11.40;99.90;;;;;;4325723;28;662156;-69
2023/10/25 10:09:48;;;;;;;38.97;19.73;;;11.40;99.90;;;;;;4344933;28;659799;-69
2023/10/25 10:12:35;;;;;;;20.63;12.60;;;11.30;99.90;;;;;;4348626;28;660015;-66
2023/10/25 10:15:25;;;;;;;37.00;18.93;;;11.40;99.90;;;;;;4351129;28;660158;-69
2023/10/25 10:18:12;;;;;;;31.90;18.30;;;11.50;99.90;;;;;;4360694;28;659650;-69
2023/10/25 10:21:01;;;;;;;33.33;17.10;;;11.40;99.90;;;;;;4368574;28;660222;-69
2023/10/25 10:23:50;;;;;;;13.27;6.97;;;11.60;99.90;;;;;;4343929;28;660361;-69
2023/10/25 10:26:58;;;;;;;32.60;18.97;;;11.50;99.90;;;;;;4357273;28;659733;-69
2023/10/25 10:29:46;;;;;;;20.37;10.47;;;11.30;99.90;;;;;;4347086;28;660040;-66
2023/10/25 10:32:33;;;;;;;16.00;7.33;;;11.40;99.90;;;;;;4351029;28;659781;-68
2023/10/25 10:35:21;;;;;;;25.13;15.67;;;11.50;99.90;;;;;;4378900;28;659669;-69
2023/10/25 10:38:10;;;;;;;25.50;14.90;;;11.60;99.90;;;;;;4353129;28;659677;-69
2023/10/25 10:41:02;;;;;;;23.70;14.63;;;11.40;99.90;;;;;;4353204;28;659818;-69
2023/10/25 10:43:49;;;;;;;25.17;13.27;;;11.40;99.90;;;;;;4348872;28;660838;-69
2023/10/25 10:46:41;;;;;;;30.67;14.80;;;11.50;99.90;;;;;;4371405;28;659546;-69
2023/10/25 10:49:29;;;;;;;19.77;12.60;;;11.40;99.90;;;;;;4322587;28;660735;-69
2023/10/25 10:52:17;;;;;;;9.60;4.67;;;11.50;99.90;;;;;;4369525;28;660305;-67
2023/10/25 10:55:06;;;;;;;18.03;10.80;;;11.50;99.90;;;;;;4351645;28;658246;-69
2023/10/25 10:57:54;;;;;;;17.70;10.30;;;11.40;99.90;;;;;;4348497;28;659724;-69
2023/10/25 11:00:44;;;;;;;13.93;8.10;;;11.50;99.90;;;;;;4370523;28;659539;-68
2023/10/25 11:03:31;;;;;;;15.88;9.60;;;11.50;99.90;;;;;;4342793;28;659476;-68
2023/10/25 11:06:21;;;;;;;15.90;9.17;;;11.50;99.90;;;;;;4349980;28;661233;-69
2023/10/25 11:09:09;;;;;;;15.27;9.20;;;11.50;99.90;;;;;;4347693;28;659260;-68
2023/10/25 11:12:06;;;;;;;11.43;7.50;;;11.60;99.90;;;;;;4366475;28;659333;-68
2023/10/25 11:14:53;;;;;;;13.23;8.30;;;11.50;99.90;;;;;;4350632;28;658854;-69
2023/10/25 11:17:40;;;;;;;12.27;8.40;;;11.50;99.90;;;;;;4368991;28;659642;-68
2023/10/25 11:20:28;;;;;;;13.53;8.47;;;11.60;99.90;;;;;;4346817;28;658749;-69
2023/10/25 11:23:15;;;;;;;15.20;8.00;;;11.50;99.90;;;;;;4365260;28;660186;-68
2023/10/25 11:26:04;;;;;;;12.80;8.30;;;11.50;99.90;;;;;;4358170;28;658447;-68
2023/10/25 11:28:53;;;;;;;15.47;8.03;;;11.50;99.90;;;;;;4366868;28;659009;-68
2023/10/25 11:31:43;;;;;;;12.20;7.97;;;11.50;99.90;;;;;;4347901;28;659009;-68
2023/10/25 11:34:32;;;;;;;11.53;7.70;;;11.50;99.90;;;;;;4343272;28;659221;-68
2023/10/25 11:37:20;;;;;;;12.67;8.17;;;11.50;99.90;;;;;;4351927;28;658729;-69
2023/10/25 11:40:08;;;;;;;10.33;6.60;;;11.40;99.90;;;;;;4350478;28;659229;-68
2023/10/25 11:42:57;;;;;;;7.93;5.53;;;11.40;99.90;;;;;;4368337;28;660391;-68
2023/10/25 11:45:46;;;;;;;12.20;9.13;;;11.50;99.90;;;;;;4352521;28;658778;-69
2023/10/25 11:48:34;;;;;;;12.90;8.77;;;11.50;99.90;;;;;;4348547;28;658317;-68
2023/10/25 11:51:21;;;;;;;16.77;10.45;;;11.40;99.90;;;;;;4368880;28;658859;-68
2023/10/25 11:54:09;;;;;;;15.63;10.93;;;11.40;99.90;;;;;;4345765;28;659343;-68
2023/10/25 11:56:56;;;;;;;13.00;9.33;;;11.40;99.90;;;;;;4367570;28;659601;-68
2023/10/25 11:59:44;;;;;;;6.47;3.57;;;11.40;99.90;;;;;;4350084;28;658532;-68
2023/10/25 12:02:33;;;;;;;6.70;3.88;;;11.40;99.90;;;;;;4367641;28;658053;-68
2023/10/25 12:05:20;;;;;;;8.40;5.87;;;11.40;99.90;;;;;;4351442;28;658651;-68
2023/10/25 12:08:07;;;;;;;16.30;12.40;;;11.30;99.90;;;;;;4346736;28;657816;-68
2023/10/25 12:10:55;;;;;;;21.10;13.67;;;11.20;99.90;;;;;;4372412;28;660979;-68
2023/10/25 12:13:42;;;;;;;16.90;11.43;;;11.20;99.90;;;;;;4372748;28;660084;-68
2023/10/25 12:16:30;;;;;;;17.83;13.03;;;11.30;99.90;;;;;;4338197;28;660800;-68
2023/10/25 12:19:19;;;;;;;18.40;13.97;;;11.30;99.90;;;;;;4363389;28;659889;-68
2023/10/25 12:22:07;;;;;;;14.40;9.50;;;11.40;99.90;;;;;;4366717;28;659556;-68
2023/10/25 12:24:55;;;;;;;22.13;13.97;;;11.40;99.90;;;;;;4348372;28;659818;-68
2023/10/25 12:27:42;;;;;;;21.47;15.13;;;11.40;99.90;;;;;;4364725;28;659886;-68
2023/10/25 12:30:29;;;;;;;19.47;13.03;;;11.30;99.90;;;;;;4346446;28;660645;-68
2023/10/25 12:33:17;;;;;;;11.93;8.13;;;11.30;99.90;;;;;;4365443;28;659271;-68
2023/10/25 12:36:06;;;;;;;19.10;12.13;;;11.40;99.90;;;;;;4348333;28;659445;-68
2023/10/25 12:38:53;;;;;;;21.20;12.73;;;11.30;99.90;;;;;;4353025;28;659786;-68
2023/10/25 12:41:41;;;;;;;19.77;12.20;;;11.30;99.90;;;;;;4373755;28;661038;-68
2023/10/25 12:44:28;;;;;;;15.80;11.33;;;11.30;99.90;;;;;;4353825;28;659737;-68
2023/10/25 12:47:15;;;;;;;17.83;11.47;;;11.50;99.90;;;;;;4372380;28;660461;-68
2023/10/25 12:50:04;;;;;;;16.03;9.93;;;11.50;99.90;;;;;;4363010;28;659547;-68
2023/10/25 12:52:53;;;;;;;16.80;11.20;;;11.60;99.90;;;;;;4376256;28;659049;-68
2023/10/25 12:55:40;;;;;;;17.93;10.57;;;11.70;99.90;;;;;;4347808;28;660481;-68
2023/10/25 12:58:27;;;;;;;9.68;5.72;;;11.80;99.90;;;;;;4351635;28;659547;-68
2023/10/25 13:01:15;;;;;;;14.07;9.10;;;11.80;99.90;;;;;;4375308;28;658571;-68
2023/10/25 13:04:02;;;;;;;12.93;8.63;;;11.90;99.90;;;;;;4369094;28;658720;-68
2023/10/25 13:06:50;;;;;;;14.37;8.83;;;12.00;99.90;;;;;;4374246;28;659178;-69
2023/10/25 13:09:39;;;;;;;15.23;8.77;;;12.20;99.90;;;;;;4370926;28;658758;-69
2023/10/25 13:12:26;;;;;;;11.17;6.30;;;12.70;99.90;;;;;;4382807;28;657991;-69
2023/10/25 13:15:14;;;;;;;11.73;6.87;;;13.30;99.90;;;;;;4350380;28;658479;-68
2023/10/25 13:18:01;;;;;;;7.90;5.20;;;13.90;99.90;;;;;;4372278;28;660333;-69
2023/10/25 13:20:49;;;;;;;6.67;3.63;;;14.80;99.90;;;;;;4357867;28;657778;-68
2023/10/25 13:23:36;;;;;;;9.47;4.50;;;15.60;99.90;;;;;;4374301;28;658049;-69
2023/10/25 13:26:24;;;;;;;7.93;4.63;;;15.70;99.90;;;;;;4355733;28;658233;-69
2023/10/25 13:29:12;;;;;;;7.37;4.63;;;16.30;99.90;;;;;;4375908;28;657225;-68
2023/10/25 13:31:59;;;;;;;9.50;4.63;;;15.90;99.90;;;;;;4349744;28;657485;-69
2023/10/25 13:34:46;;;;;;;8.83;4.80;;;15.30;99.90;;;;;;4375195;28;657312;-67
2023/10/25 13:37:33;;;;;;;6.47;4.43;;;15.00;99.90;;;;;;4355503;28;658213;-68
2023/10/25 13:40:22;;;;;;;9.00;4.90;;;13.70;99.90;;;;;;4374841;28;658654;-68
2023/10/25 13:43:12;;;;;;;6.47;4.37;;;13.70;99.90;;;;;;4355178;28;659567;-68
2023/10/25 13:45:59;;;;;;;7.03;4.27;;;13.70;99.90;;;;;;4348212;28;658319;-68
2023/10/25 13:48:47;;;;;;;7.93;4.70;;;13.50;99.90;;;;;;4374757;28;657911;-68
2023/10/25 13:51:35;;;;;;;7.37;4.30;;;13.60;99.90;;;;;;4355449;28;657477;-68
2023/10/25 13:54:22;;;;;;;11.13;4.47;;;13.60;99.90;;;;;;4355592;28;657827;-68
2023/10/25 13:57:10;;;;;;;8.43;4.33;;;13.50;99.90;;;;;;4374606;28;660320;-68
2023/10/25 13:59:59;;;;;;;5.43;3.70;;;13.30;99.90;;;;;;4374784;28;657797;-69
2023/10/25 14:02:46;;;;;;;7.32;3.95;;;13.10;99.90;;;;;;4369585;28;657420;-68
2023/10/25 14:05:39;;;;;;;9.13;4.67;;;13.00;99.90;;;;;;4351310;28;657572;-68
2023/10/25 14:08:26;;;;;;;5.90;4.03;;;12.90;99.90;;;;;;4344339;28;657346;-68